KATL/ATL METAR and TAF weather

Enter ICAO airport designator
Station Type Date Time Source
KATL METAR 2019/02/23 01:52 UTC NOAA

KATL 230152Z 08014KT 1/2SM R09R/P6000FT -DZ BR OVC003 11/09 A3022 RMK AO2 SFC VIS 3 SLP232 TWRINC P0000 T01110094


Station Type Date Time Source
KATL Decoded METAR 2019/02/23 01:52 UTC NOAA

HARTSFIELD-JACKSON ATLANTA, GA, United States (KATL) 33-39N 84-26W
Feb 22, 2019 - 08:52 PM EST / 2019.02.23 0152 UTC
Wind: from the E (080 degrees) at 16 MPH (14 KT):0
Visibility: 1/2 mile(s):0
Sky conditions: overcast
Weather: light drizzle; mist
Precipitation last hour: A trace
Temperature: 52.0 F (11.1 C)
Dew Point: 48.9 F (9.4 C)
Relative Humidity: 89%
Pressure (altimeter): 30.22 in. Hg (1023 hPa)
ob: KATL 230152Z 08014KT 1/2SM R09R/P6000FT -DZ BR OVC003 11/09 A3022 RMK AO2 SFC VIS 3 SLP232 TWRINC P0000 T01110094
cycle: 2

Station Type Date Time Source
KATL TAF 2019/02/23 02:09 UTC NOAA

TAF
AMD KATL 230206Z 2302/2406 07013KT 3SM -DZ BR OVC003
FM231500 10009KT 4SM BR OVC004
FM232100 12008KT 6SM BR OVC006 PROB30 2321/2401 4SM -SHRA OVC004
FM240100 11008KT 3SM SHRA OVC009


Example: see airport list